Terminal Aerodrome Forecast
Issued by NWS North Platte, NE

Home | Current Version | Previous Version | Text Only | Print | Product List | Glossary On
Versions: 1 2 3 4 5 6 7 8 9 10 11 12 13 14 15 16 17 18 19 20 21 22 23 24 25 26 27
000
FTUS43 KLBF 211100
TAFLBF
TAF
KLBF 211121Z 2112/2212 28003KT P6SM SCT200
     FM212100 21009KT P6SM SCT080 BKN120 PROB30 2200/2203 P6SM -SHRA
      OVC070
     FM221000 29012G16KT P6SM SCT050 BKN080=

USA.gov is the U.S. government's official web portal to all federal, state and local government web resources and services.